Pagina principale
METAR-TAF:

METAR-TAF

Aeroporti :

Emmen, Svizzera

latitudine: 47-05-32N, longitudine: 8-18-16E, altezza: 426 m

Osservazione

Il bollettino è stato emesso 36 minuti fa, alle 12:50 UTC
Vento 1 kt da direzioni variabili
Temperature 22°C
Umidità 65%
Pressione 1019 hPa
Visibilità 10 km o più
nessuna nube inferiore a 1500 m e nessun cumulonembo

METAR: LSME 271250Z VRB01KT CAVOK 22/15 Q1019 RMK BLU

Ora: 15:26 (13:26 UTC)


TAF: mancante

Osservazioni e previsioni meteorologiche di più di 4000 aeroporti (messaggi METAR e TAF).

Le stazioni disponibili sono rappresentate dai dischi gialli e rossi sulla carta.

Puntare il mouse per vedere il nome della stazione.

Clicca sopra per visualizzare le osservazioni e previsioni meteorologiche.

Per cambiare la mappa : fare clic sui pulsanti verdi con una croce nera per ingrandire, il pulsante verde con un trattino per diminuire, o sulla freccia verde per le mappe adiacenti.


METAR-TAF: